This is the latest recevied weather packets stored in our database for station/object OE3EMC-13. If no packets are shown the sender has not sent any weather packets the latest 10 day(s).
| Time | Temp. | Humidity | Pressure | Rain* | Wind** | Luminosity | Snow |
|---|---|---|---|---|---|---|---|
| 1777370592 | 16.11° C | 41% | 1100 hPa | 0 mm | - | - | - |
| 1777369991 | 14.44° C | 42% | 1100 hPa | 0 mm | - | - | - |
| 1777369392 | 14.44° C | 42% | 1100 hPa | 0 mm | - | - | - |
| 1777368790 | 14.44° C | 46% | 1100 hPa | 0 mm | - | - | - |
| 1777368190 | 14.44° C | 46% | 1100 hPa | 0 mm | - | - | - |
| 1777367590 | 13.33° C | 46% | 1100 hPa | 0 mm | - | - | - |
| 1777366990 | 13.33° C | 46% | 1100 hPa | 0 mm | - | - | - |
| 1777366391 | 13.33° C | 48% | 1100 hPa | 0 mm | - | - | - |
| 1777365790 | 13.33° C | 48% | 1100 hPa | 0 mm | - | - | - |
| 1777365189 | 11.11° C | 54% | 1100 hPa | 0 mm | - | - | - |
| 1777364594 | 11.11° C | 54% | 1100 hPa | 0 mm | - | - | - |
| 1777363994 | 10° C | 58% | 1100 hPa | 0 mm | - | - | - |
| 1777363395 | 10° C | 58% | 1100 hPa | 0 mm | - | - | - |
| 1777362794 | 8.89° C | 56% | 1100 hPa | 0 mm | - | - | - |
| 1777362194 | 8.89° C | 56% | 1100 hPa | 0 mm | - | - | - |
| 1777361594 | 7.78° C | 60% | 1100 hPa | 0 mm | - | - | - |
| 1777360993 | 7.78° C | 60% | 1100 hPa | 0 mm | - | - | - |
| 1777360393 | 7.22° C | 61% | 1100 hPa | 0 mm | - | - | - |
| 1777359793 | 7.22° C | 61% | 1100 hPa | 0 mm | - | - | - |
| 1777359193 | 6.67° C | 63% | 1100 hPa | 0 mm | - | - | - |
| 1777358593 | 6.67° C | 63% | 1100 hPa | 0 mm | - | - | - |
| 1777357993 | 5.56° C | 65% | 1100 hPa | 0 mm | - | - | - |
| 1777357393 | 5.56° C | 65% | 1100 hPa | 0 mm | - | - | - |
| 1777356792 | 4.44° C | 67% | 1100 hPa | 0 mm | - | - | - |
| 1777356192 | 4.44° C | 67% | 1100 hPa | 0 mm | - | - | - |
* Rain latest hour (hover to see other rain measurements)
** Current wind speed in m/s (hover to see current wind gust speed)